Time;durP1;ratioP1;P1;durP2;ratioP2;P2;SDS_P1;SDS_P2;PMS_P1;PMS_P2;Temp;Humidity;BMP_temperature;BMP_pressure;BME280_temperature;BME280_humidity;BME280_pressure;Samples;Min_cycle;Max_cycle;Signal;HPM_P1;HPM_P2
2022/12/03 00:00:06;;;;;;;61.50;27.53;;;;;;;;;;6238364;28;20439;-78
2022/12/03 00:03:06;;;;;;;58.53;26.55;;;;;;;;;;6253289;28;20064;-77
2022/12/03 00:06:06;;;;;;;56.65;24.98;;;;;;;;;;6236100;28;20048;-77
2022/12/03 00:09:06;;;;;;;65.17;28.77;;;;;;;;;;6242166;28;20244;-77
2022/12/03 00:12:06;;;;;;;51.53;24.60;;;;;;;;;;6233952;28;20388;-77
2022/12/03 00:15:08;;;;;;;54.33;25.53;;;;;;;;;;6223236;28;20030;-78
2022/12/03 00:18:08;;;;;;;64.32;29.90;;;;;;;;;;6237070;28;20021;-77
2022/12/03 00:21:08;;;;;;;64.00;28.50;;;;;;;;;;6238539;28;20025;-78
2022/12/03 00:24:08;;;;;;;59.30;26.63;;;;;;;;;;6241158;28;20017;-78
2022/12/03 00:27:08;;;;;;;62.03;26.65;;;;;;;;;;6240806;28;20024;-79
2022/12/03 00:30:09;;;;;;;62.87;25.80;;;;;;;;;;6236342;28;20401;-78
2022/12/03 00:33:09;;;;;;;58.27;28.13;;;;;;;;;;6235196;28;20474;-77
2022/12/03 00:36:10;;;;;;;54.97;26.90;;;;;;;;;;6233767;28;20443;-78
2022/12/03 00:39:10;;;;;;;56.93;27.40;;;;;;;;;;6234769;28;20017;-78
2022/12/03 00:42:10;;;;;;;60.95;28.45;;;;;;;;;;6238667;28;20374;-78
2022/12/03 00:45:11;;;;;;;59.17;28.00;;;;;;;;;;6236966;28;20040;-77
2022/12/03 00:48:11;;;;;;;46.43;21.30;;;;;;;;;;6240563;28;20021;-78
2022/12/03 00:51:11;;;;;;;53.20;23.98;;;;;;;;;;6240710;28;20021;-78
2022/12/03 00:54:11;;;;;;;62.37;25.93;;;;;;;;;;6258946;28;20032;-78
2022/12/03 00:57:12;;;;;;;43.53;21.63;;;;;;;;;;6256902;28;20061;-78
2022/12/03 01:00:12;;;;;;;58.47;29.67;;;;;;;;;;6245928;28;20140;-78
2022/12/03 01:03:13;;;;;;;60.10;27.50;;;;;;;;;;6238089;28;20045;-78
2022/12/03 01:06:13;;;;;;;62.30;27.30;;;;;;;;;;6234950;28;20402;-78
2022/12/03 01:09:13;;;;;;;64.37;27.23;;;;;;;;;;6236278;28;20014;-78
2022/12/03 01:12:13;;;;;;;54.30;23.13;;;;;;;;;;6240413;28;20045;-78
2022/12/03 01:15:13;;;;;;;52.67;28.30;;;;;;;;;;6240536;28;20049;-78
2022/12/03 01:18:14;;;;;;;52.23;25.60;;;;;;;;;;6240796;28;20017;-78
2022/12/03 01:21:14;;;;;;;50.73;22.07;;;;;;;;;;6239806;28;20013;-78
2022/12/03 01:24:14;;;;;;;50.37;23.87;;;;;;;;;;6241412;28;20018;-78
2022/12/03 01:27:15;;;;;;;55.07;25.80;;;;;;;;;;6239194;28;20028;-78
2022/12/03 01:30:15;;;;;;;42.73;23.07;;;;;;;;;;6255197;28;20013;-78
2022/12/03 01:33:15;;;;;;;58.60;26.33;;;;;;;;;;6238290;28;20211;-77
2022/12/03 01:36:15;;;;;;;44.97;23.17;;;;;;;;;;6240409;28;20120;-78
2022/12/03 01:39:15;;;;;;;48.92;23.58;;;;;;;;;;6239135;28;20024;-78
2022/12/03 01:42:17;;;;;;;50.25;23.52;;;;;;;;;;6232899;28;20079;-78
2022/12/03 01:45:20;;;;;;;50.05;22.77;;;;;;;;;;6238679;28;20021;-78
2022/12/03 01:48:21;;;;;;;48.72;24.20;;;;;;;;;;6240865;28;20032;-77
2022/12/03 01:51:21;;;;;;;44.20;21.27;;;;;;;;;;6236697;28;20021;-78
2022/12/03 01:54:25;;;;;;;37.13;17.90;;;;;;;;;;6242783;28;20524;-78
2022/12/03 01:57:26;;;;;;;49.58;24.70;;;;;;;;;;6239970;28;20038;-78
2022/12/03 02:00:27;;;;;;;49.45;24.10;;;;;;;;;;6238513;28;20421;-78
2022/12/03 02:03:27;;;;;;;46.07;22.13;;;;;;;;;;6240749;28;20255;-78
2022/12/03 02:06:28;;;;;;;47.73;22.33;;;;;;;;;;6237363;28;20014;-78
2022/12/03 02:09:28;;;;;;;54.33;24.60;;;;;;;;;;6236622;28;20052;-78
2022/12/03 02:12:32;;;;;;;48.13;23.63;;;;;;;;;;6228844;28;20333;-78
2022/12/03 02:15:32;;;;;;;42.78;20.27;;;;;;;;;;6237811;28;20021;-78
2022/12/03 02:18:33;;;;;;;49.50;21.93;;;;;;;;;;6238983;28;20078;-78
2022/12/03 02:21:52;;;;;;;45.47;20.33;;;;;;;;;;6234351;28;20362;-77
2022/12/03 02:24:58;;;;;;;48.03;22.13;;;;;;;;;;6239485;28;20024;-78
2022/12/03 02:28:00;;;;;;;47.83;23.55;;;;;;;;;;6238601;28;20462;-78
2022/12/03 02:31:00;;;;;;;42.35;22.50;;;;;;;;;;6216786;28;20014;-78
2022/12/03 02:34:04;;;;;;;49.73;22.90;;;;;;;;;;6237732;28;20049;-78
2022/12/03 02:37:05;;;;;;;40.53;19.90;;;;;;;;;;6237625;28;20021;-78
2022/12/03 02:40:08;;;;;;;47.03;24.80;;;;;;;;;;6235507;28;20021;-78
2022/12/03 02:43:09;;;;;;;48.80;23.17;;;;;;;;;;6231023;28;20046;-78
2022/12/03 02:46:09;;;;;;;51.13;22.60;;;;;;;;;;6232656;28;20198;-78
2022/12/03 02:49:09;;;;;;;42.75;20.13;;;;;;;;;;6236646;28;20113;-78
2022/12/03 02:52:10;;;;;;;42.10;23.90;;;;;;;;;;6240282;28;20096;-77
2022/12/03 02:55:11;;;;;;;36.77;18.20;;;;;;;;;;6239164;28;20099;-78
2022/12/03 02:58:12;;;;;;;42.20;19.90;;;;;;;;;;6237499;28;20149;-78
2022/12/03 03:01:27;;;;;;;48.75;23.50;;;;;;;;;;6227036;28;20092;-79
2022/12/03 03:04:28;;;;;;;45.87;21.47;;;;;;;;;;6241598;28;20049;-78
2022/12/03 03:07:28;;;;;;;47.57;21.90;;;;;;;;;;6237554;28;20021;-78
2022/12/03 03:10:29;;;;;;;42.83;20.17;;;;;;;;;;6240109;28;20035;-78
2022/12/03 03:13:31;;;;;;;51.40;23.47;;;;;;;;;;6238186;28;20415;-78
2022/12/03 03:16:32;;;;;;;46.30;21.42;;;;;;;;;;6248658;28;20033;-79
2022/12/03 03:19:32;;;;;;;47.43;21.67;;;;;;;;;;6237407;28;20029;-78
2022/12/03 03:22:34;;;;;;;39.20;22.83;;;;;;;;;;6239365;28;20041;-78
2022/12/03 03:25:34;;;;;;;47.80;23.23;;;;;;;;;;6236980;28;20025;-78
2022/12/03 03:28:36;;;;;;;46.10;22.67;;;;;;;;;;6239981;28;20048;-78
2022/12/03 03:31:37;;;;;;;45.40;23.13;;;;;;;;;;6238241;28;20028;-78
2022/12/03 03:34:37;;;;;;;30.73;17.57;;;;;;;;;;6239308;28;20029;-78
2022/12/03 03:37:37;;;;;;;50.13;23.13;;;;;;;;;;6243174;28;20052;-78
2022/12/03 03:40:38;;;;;;;46.33;22.37;;;;;;;;;;6237418;28;20017;-78
2022/12/03 03:43:40;;;;;;;48.83;22.30;;;;;;;;;;6238029;28;20420;-77
2022/12/03 03:46:40;;;;;;;46.95;23.27;;;;;;;;;;6232750;28;20042;-78
2022/12/03 03:49:41;;;;;;;49.20;24.00;;;;;;;;;;6237320;28;20025;-78
2022/12/03 03:52:41;;;;;;;51.03;25.00;;;;;;;;;;6240198;28;20010;-78
2022/12/03 03:55:42;;;;;;;45.80;22.53;;;;;;;;;;6242731;28;20040;-78
2022/12/03 03:58:42;;;;;;;48.13;24.27;;;;;;;;;;6241642;28;20100;-76
2022/12/03 04:01:43;;;;;;;46.13;23.97;;;;;;;;;;6243099;28;20039;-76
2022/12/03 04:04:43;;;;;;;46.87;24.00;;;;;;;;;;6236809;28;20362;-76
2022/12/03 04:07:43;;;;;;;47.78;24.63;;;;;;;;;;6240028;28;20017;-77
2022/12/03 04:14:02;;;;;;;48.03;23.08;;;;;;;;;;6243030;28;20198;-79
2022/12/03 04:17:02;;;;;;;46.27;24.97;;;;;;;;;;6241803;28;20108;-76
2022/12/03 04:20:03;;;;;;;35.07;21.10;;;;;;;;;;6242587;28;20076;-76
2022/12/03 04:23:03;;;;;;;48.20;26.07;;;;;;;;;;6242808;28;20126;-79
2022/12/03 04:29:22;;;;;;;48.80;25.00;;;;;;;;;;6246536;28;20118;-78
2022/12/03 04:35:41;;;;;;;50.00;26.67;;;;;;;;;;6233944;28;20034;-76
2022/12/03 04:38:41;;;;;;;55.17;26.27;;;;;;;;;;6240008;28;20021;-77
2022/12/03 04:41:42;;;;;;;66.87;30.93;;;;;;;;;;6241531;28;20477;-79
2022/12/03 04:44:42;;;;;;;57.63;26.70;;;;;;;;;;6240932;28;20014;-79
2022/12/03 04:47:42;;;;;;;63.80;24.83;;;;;;;;;;6242870;28;20566;-76
2022/12/03 04:50:42;;;;;;;60.60;30.67;;;;;;;;;;6241456;28;20021;-76
2022/12/03 04:53:42;;;;;;;55.67;27.80;;;;;;;;;;6242723;28;20506;-78
2022/12/03 04:56:43;;;;;;;59.45;26.90;;;;;;;;;;6239638;28;20046;-76
2022/12/03 04:59:43;;;;;;;58.83;26.27;;;;;;;;;;6238064;28;20025;-77
2022/12/03 05:02:43;;;;;;;54.00;24.10;;;;;;;;;;6239472;28;20428;-77
2022/12/03 05:05:43;;;;;;;52.47;26.83;;;;;;;;;;6244432;28;20022;-77
2022/12/03 05:08:43;;;;;;;60.50;25.00;;;;;;;;;;6242226;28;20025;-77
2022/12/03 05:11:44;;;;;;;55.25;27.33;;;;;;;;;;6235701;28;20513;-78
2022/12/03 05:14:44;;;;;;;62.00;26.90;;;;;;;;;;6236205;28;20013;-77
2022/12/03 05:17:44;;;;;;;62.78;26.33;;;;;;;;;;6242138;28;20048;-78
2022/12/03 05:20:44;;;;;;;55.25;27.08;;;;;;;;;;6241272;28;20412;-77
2022/12/03 05:23:45;;;;;;;56.37;26.10;;;;;;;;;;6238996;28;20096;-77
2022/12/03 05:26:45;;;;;;;61.17;28.43;;;;;;;;;;6240456;28;20052;-77
2022/12/03 05:29:45;;;;;;;62.50;30.50;;;;;;;;;;6241155;28;20024;-77
2022/12/03 05:32:45;;;;;;;62.47;28.45;;;;;;;;;;6238404;28;20033;-78
2022/12/03 05:35:46;;;;;;;64.03;27.53;;;;;;;;;;6241030;28;20430;-77
2022/12/03 05:38:46;;;;;;;47.93;23.10;;;;;;;;;;6240289;28;20416;-77
2022/12/03 05:45:06;;;;;;;59.83;28.08;;;;;;;;;;6239561;28;20021;-77
2022/12/03 05:48:07;;;;;;;61.30;28.73;;;;;;;;;;6239171;28;20140;-76
2022/12/03 05:51:07;;;;;;;66.07;28.13;;;;;;;;;;6237948;28;20010;-77
2022/12/03 05:54:07;;;;;;;76.33;30.20;;;;;;;;;;6241173;28;20021;-78
2022/12/03 05:57:08;;;;;;;66.60;29.57;;;;;;;;;;6238743;28;20033;-76
2022/12/03 06:00:15;;;;;;;67.23;29.57;;;;;;;;;;6236706;28;20112;-77
2022/12/03 06:03:16;;;;;;;61.72;28.02;;;;;;;;;;6229749;28;20421;-77
2022/12/03 06:06:16;;;;;;;64.20;30.83;;;;;;;;;;6235276;28;20018;-76
2022/12/03 06:09:16;;;;;;;64.87;29.60;;;;;;;;;;6240652;28;20477;-76
2022/12/03 06:12:16;;;;;;;75.47;31.97;;;;;;;;;;6239633;28;20021;-77
2022/12/03 06:15:17;;;;;;;50.13;23.40;;;;;;;;;;6238187;28;20022;-77
2022/12/03 06:18:17;;;;;;;78.47;33.00;;;;;;;;;;6225870;28;20059;-77
2022/12/03 06:21:17;;;;;;;74.45;33.20;;;;;;;;;;6236117;28;20100;-77
2022/12/03 06:24:17;;;;;;;64.07;29.90;;;;;;;;;;6241278;28;20013;-77
2022/12/03 06:27:17;;;;;;;73.37;31.40;;;;;;;;;;6238484;28;20047;-77
2022/12/03 06:30:18;;;;;;;76.53;30.33;;;;;;;;;;6234217;28;20029;-77
2022/12/03 06:33:18;;;;;;;74.63;30.67;;;;;;;;;;6239331;28;20277;-77
2022/12/03 06:36:18;;;;;;;68.20;27.25;;;;;;;;;;6239993;28;20373;-78
2022/12/03 06:39:18;;;;;;;72.23;29.13;;;;;;;;;;6239976;28;20021;-77
2022/12/03 06:42:18;;;;;;;64.63;28.43;;;;;;;;;;6239765;28;20701;-78
2022/12/03 06:45:19;;;;;;;56.75;25.58;;;;;;;;;;6234889;28;20022;-78
2022/12/03 06:48:19;;;;;;;62.60;26.00;;;;;;;;;;6240621;28;20021;-78
2022/12/03 06:51:19;;;;;;;57.72;26.27;;;;;;;;;;6230276;28;20025;-77
2022/12/03 06:54:19;;;;;;;68.25;30.73;;;;;;;;;;6231300;28;20717;-78
2022/12/03 06:57:19;;;;;;;75.25;29.67;;;;;;;;;;6235223;28;20044;-77
2022/12/03 07:00:20;;;;;;;68.10;30.13;;;;;;;;;;6237127;28;20041;-78
2022/12/03 07:03:20;;;;;;;78.73;31.67;;;;;;;;;;6235907;28;20013;-78
2022/12/03 07:06:20;;;;;;;75.78;29.98;;;;;;;;;;6243254;28;20041;-77
2022/12/03 07:09:20;;;;;;;80.07;36.20;;;;;;;;;;6237367;28;20029;-77
2022/12/03 07:12:22;;;;;;;132.57;48.07;;;;;;;;;;6238589;28;20045;-78
2022/12/03 07:15:22;;;;;;;163.32;55.53;;;;;;;;;;6239120;28;20060;-77
2022/12/03 07:18:22;;;;;;;66.88;28.85;;;;;;;;;;6229176;28;20116;-78
2022/12/03 07:21:22;;;;;;;97.00;39.63;;;;;;;;;;6220088;28;20543;-78
2022/12/03 07:24:22;;;;;;;66.90;26.60;;;;;;;;;;6232728;28;20334;-77
2022/12/03 07:27:23;;;;;;;70.55;28.02;;;;;;;;;;6233993;28;20010;-77
2022/12/03 07:30:26;;;;;;;58.80;28.20;;;;;;;;;;6227995;28;20390;-77
2022/12/03 07:33:26;;;;;;;68.65;27.60;;;;;;;;;;6233463;28;20030;-78
2022/12/03 07:36:26;;;;;;;67.60;27.10;;;;;;;;;;6236669;28;20097;-77
2022/12/03 07:39:27;;;;;;;62.93;25.93;;;;;;;;;;6231658;28;20437;-78
2022/12/03 07:42:27;;;;;;;62.27;27.77;;;;;;;;;;6230282;28;20449;-78
2022/12/03 07:45:27;;;;;;;66.72;30.90;;;;;;;;;;6232782;28;20028;-78
2022/12/03 07:48:27;;;;;;;67.03;28.77;;;;;;;;;;6228864;28;20239;-79
2022/12/03 07:51:28;;;;;;;70.47;31.53;;;;;;;;;;6241167;28;20096;-78
2022/12/03 07:54:28;;;;;;;67.10;27.87;;;;;;;;;;6232481;28;20278;-78
2022/12/03 07:57:28;;;;;;;68.85;32.72;;;;;;;;;;6239233;28;20053;-78
2022/12/03 08:00:28;;;;;;;79.57;32.30;;;;;;;;;;6238769;28;20397;-78
2022/12/03 08:03:28;;;;;;;69.37;30.50;;;;;;;;;;6230715;28;20701;-78
2022/12/03 08:06:29;;;;;;;100.80;42.17;;;;;;;;;;6230955;28;20066;-78
2022/12/03 08:09:30;;;;;;;167.20;58.57;;;;;;;;;;6240647;28;20405;-78
2022/12/03 08:12:40;;;;;;;67.22;27.05;;;;;;;;;;6230383;28;20032;-78
2022/12/03 08:15:41;;;;;;;76.13;32.53;;;;;;;;;;6226397;28;20045;-78
2022/12/03 08:18:41;;;;;;;79.53;35.00;;;;;;;;;;6229266;28;20029;-78
2022/12/03 08:21:42;;;;;;;78.40;37.47;;;;;;;;;;6230500;28;20094;-77
2022/12/03 08:24:42;;;;;;;67.37;32.20;;;;;;;;;;6238815;28;20049;-79
2022/12/03 08:27:42;;;;;;;65.07;25.63;;;;;;;;;;6233302;28;20045;-79
2022/12/03 08:30:43;;;;;;;77.37;30.23;;;;;;;;;;6231394;28;20041;-79
2022/12/03 08:33:44;;;;;;;58.08;27.67;;;;;;;;;;6238912;28;20013;-79
2022/12/03 08:36:46;;;;;;;73.53;27.57;;;;;;;;;;6234676;28;20021;-79
2022/12/03 08:39:47;;;;;;;67.53;28.90;;;;;;;;;;6227362;28;20099;-79
2022/12/03 08:42:47;;;;;;;60.45;27.48;;;;;;;;;;6233194;28;20527;-79
2022/12/03 08:45:48;;;;;;;62.30;25.90;;;;;;;;;;6237485;28;20014;-79
2022/12/03 08:48:49;;;;;;;68.53;29.57;;;;;;;;;;6227315;28;20655;-79
2022/12/03 08:51:53;;;;;;;53.80;23.97;;;;;;;;;;6231180;28;20272;-79
2022/12/03 08:54:54;;;;;;;63.88;28.48;;;;;;;;;;6244900;28;20040;-79
2022/12/03 09:01:41;;;;;;;56.13;28.70;;;;;;;;;;6230498;28;20124;-78
2022/12/03 09:04:45;;;;;;;63.60;30.25;;;;;;;;;;6227034;28;20048;-78
2022/12/03 09:07:45;;;;;;;61.60;28.83;;;;;;;;;;6230581;28;20030;-78
2022/12/03 09:10:45;;;;;;;68.30;31.17;;;;;;;;;;6235252;28;20033;-78
2022/12/03 09:13:45;;;;;;;75.80;32.53;;;;;;;;;;6229167;28;20380;-78
2022/12/03 09:16:46;;;;;;;60.22;27.98;;;;;;;;;;6222976;28;20357;-78
2022/12/03 09:19:47;;;;;;;60.93;28.70;;;;;;;;;;6226310;28;20285;-77
2022/12/03 09:22:48;;;;;;;63.58;31.75;;;;;;;;;;6227329;28;20025;-78
2022/12/03 09:25:48;;;;;;;71.73;29.77;;;;;;;;;;6223632;28;20327;-78
2022/12/03 09:28:48;;;;;;;71.43;31.10;;;;;;;;;;6226016;28;20021;-80
2022/12/03 09:31:49;;;;;;;58.93;25.90;;;;;;;;;;6233663;28;20024;-78
2022/12/03 09:34:49;;;;;;;68.40;31.77;;;;;;;;;;6237454;28;20021;-78
2022/12/03 09:37:49;;;;;;;60.47;27.67;;;;;;;;;;6225514;28;20032;-77
2022/12/03 09:40:50;;;;;;;57.30;28.60;;;;;;;;;;6228777;28;20109;-78
2022/12/03 09:43:51;;;;;;;68.17;33.93;;;;;;;;;;6232203;28;20022;-78
2022/12/03 09:46:51;;;;;;;69.50;32.60;;;;;;;;;;6243020;28;20025;-77
2022/12/03 09:49:51;;;;;;;63.57;29.60;;;;;;;;;;6227573;28;20925;-75
2022/12/03 09:52:53;;;;;;;54.13;28.10;;;;;;;;;;6231818;28;20009;-76
2022/12/03 09:55:56;;;;;;;70.82;36.63;;;;;;;;;;6228891;28;20048;-78
2022/12/03 09:58:57;;;;;;;65.68;31.02;;;;;;;;;;6240032;28;20127;-77
2022/12/03 10:01:57;;;;;;;72.57;37.33;;;;;;;;;;6237224;28;20051;-78
2022/12/03 10:04:57;;;;;;;66.93;31.03;;;;;;;;;;6240585;28;20024;-76
2022/12/03 10:08:04;;;;;;;61.57;31.40;;;;;;;;;;6230299;28;20043;-76
2022/12/03 10:11:04;;;;;;;69.07;32.05;;;;;;;;;;6230466;28;20100;-78
2022/12/03 10:14:04;;;;;;;66.60;33.90;;;;;;;;;;6234194;28;20082;-77
2022/12/03 10:17:04;;;;;;;69.00;30.73;;;;;;;;;;6228010;28;20109;-77
2022/12/03 10:20:06;;;;;;;66.83;30.67;;;;;;;;;;6230569;28;20477;-77
2022/12/03 10:23:06;;;;;;;61.30;30.38;;;;;;;;;;6230297;28;20604;-77
2022/12/03 10:26:06;;;;;;;72.13;32.77;;;;;;;;;;6227208;28;20021;-75
2022/12/03 10:29:16;;;;;;;67.00;30.07;;;;;;;;;;6230635;28;20014;-77
2022/12/03 10:32:16;;;;;;;78.47;33.72;;;;;;;;;;6229726;28;20112;-76
2022/12/03 10:35:17;;;;;;;67.03;34.13;;;;;;;;;;6228620;28;20492;-75
2022/12/03 10:38:21;;;;;;;62.55;28.77;;;;;;;;;;6223410;28;20025;-75
2022/12/03 10:41:25;;;;;;;64.28;29.77;;;;;;;;;;6217275;28;20118;-75
2022/12/03 10:44:26;;;;;;;74.05;31.65;;;;;;;;;;6213888;28;20465;-76
2022/12/03 10:47:26;;;;;;;62.70;29.53;;;;;;;;;;6216691;28;20017;-77
2022/12/03 10:50:26;;;;;;;70.53;33.57;;;;;;;;;;6231333;28;20316;-76
2022/12/03 10:53:31;;;;;;;82.60;35.10;;;;;;;;;;6241192;28;20487;-76
2022/12/03 10:56:32;;;;;;;76.93;38.20;;;;;;;;;;6225718;28;20041;-77
2022/12/03 10:59:32;;;;;;;72.37;34.83;;;;;;;;;;6239226;28;20051;-76
2022/12/03 11:02:33;;;;;;;67.47;31.93;;;;;;;;;;6235730;28;20017;-76
2022/12/03 11:05:33;;;;;;;74.70;33.33;;;;;;;;;;6237469;28;20076;-77
2022/12/03 11:08:34;;;;;;;79.30;39.80;;;;;;;;;;6229655;28;20461;-77
2022/12/03 11:11:44;;;;;;;81.30;39.05;;;;;;;;;;6243540;28;20029;-77
2022/12/03 11:14:56;;;;;;;96.43;45.35;;;;;;;;;;6222069;28;20017;-74
2022/12/03 11:17:56;;;;;;;87.57;40.78;;;;;;;;;;6232463;28;20513;-77
2022/12/03 11:20:56;;;;;;;72.13;37.00;;;;;;;;;;6231602;28;20021;-75
2022/12/03 11:23:59;;;;;;;77.90;35.87;;;;;;;;;;6225897;28;20481;-76
2022/12/03 11:26:59;;;;;;;67.75;34.70;;;;;;;;;;6222644;28;20018;-76
2022/12/03 11:30:00;;;;;;;77.87;36.10;;;;;;;;;;6222402;28;20036;-76
2022/12/03 11:33:00;;;;;;;78.43;37.20;;;;;;;;;;6220522;28;20021;-76
2022/12/03 11:36:00;;;;;;;80.80;37.23;;;;;;;;;;6220469;28;20048;-76
2022/12/03 11:39:01;;;;;;;91.37;41.17;;;;;;;;;;6223598;28;20025;-75
2022/12/03 11:42:24;;;;;;;80.93;36.83;;;;;;;;;;6214031;28;20052;-76
2022/12/03 11:45:27;;;;;;;79.63;37.17;;;;;;;;;;6242697;28;20025;-77
2022/12/03 11:48:27;;;;;;;87.05;40.05;;;;;;;;;;6238135;28;20043;-77
2022/12/03 11:51:28;;;;;;;102.00;44.17;;;;;;;;;;6238897;28;20017;-77
2022/12/03 11:54:32;;;;;;;68.23;33.47;;;;;;;;;;6225467;28;20318;-77
2022/12/03 11:57:34;;;;;;;87.28;42.83;;;;;;;;;;6222649;28;20350;-76
2022/12/03 12:00:34;;;;;;;90.80;43.47;;;;;;;;;;6214460;28;20307;-76
2022/12/03 12:03:45;;;;;;;97.03;44.33;;;;;;;;;;6221041;28;20033;-76
2022/12/03 12:06:45;;;;;;;94.55;40.17;;;;;;;;;;6223183;28;20048;-76
2022/12/03 12:09:46;;;;;;;96.17;38.77;;;;;;;;;;6219881;28;20045;-76
2022/12/03 12:12:47;;;;;;;95.67;43.83;;;;;;;;;;6234403;28;20012;-77
2022/12/03 12:15:52;;;;;;;98.50;47.67;;;;;;;;;;6223088;28;20285;-77
2022/12/03 12:18:52;;;;;;;97.22;41.80;;;;;;;;;;6240664;28;20024;-77
2022/12/03 12:25:30;;;;;;;89.10;41.83;;;;;;;;;;6236410;28;20034;-77
2022/12/03 12:31:49;;;;;;;91.80;41.75;;;;;;;;;;6238838;28;20029;-78
2022/12/03 12:38:27;;;;;;;97.00;43.28;;;;;;;;;;6227728;28;20026;-76
2022/12/03 12:41:27;;;;;;;96.80;42.53;;;;;;;;;;6233737;28;20452;-77
2022/12/03 12:44:28;;;;;;;99.13;41.90;;;;;;;;;;6229396;28;20100;-76
2022/12/03 12:47:28;;;;;;;96.70;44.63;;;;;;;;;;6227420;28;20018;-77
2022/12/03 12:50:29;;;;;;;93.00;44.10;;;;;;;;;;6227352;28;20385;-77
2022/12/03 12:53:31;;;;;;;90.00;42.50;;;;;;;;;;6242155;28;20079;-77
2022/12/03 12:56:31;;;;;;;;;;;;;;;;;;6241740;28;20069;-77
2022/12/03 12:59:32;;;;;;;100.03;40.40;;;;;;;;;;6234060;28;19928;-78
2022/12/03 13:02:37;;;;;;;88.67;39.23;;;;;;;;;;6239105;28;20028;-77
2022/12/03 13:08:59;;;;;;;88.68;40.85;;;;;;;;;;6235876;28;20034;-77
2022/12/03 13:12:00;;;;;;;;;;;;;;;;;;6237383;28;20014;-77
2022/12/03 13:15:00;;;;;;;104.70;46.47;;;;;;;;;;6237162;28;20216;-77
2022/12/03 13:18:09;;;;;;;99.63;44.97;;;;;;;;;;6240319;28;20064;-77
2022/12/03 13:21:12;;;;;;;87.28;42.92;;;;;;;;;;6236095;28;20030;-78
2022/12/03 13:27:50;;;;;;;89.60;39.85;;;;;;;;;;6237405;28;20010;-77
2022/12/03 13:30:56;;;;;;;92.00;44.47;;;;;;;;;;6240603;28;20118;-75
2022/12/03 13:33:58;;;;;;;97.72;44.70;;;;;;;;;;6231522;28;20276;-77
2022/12/03 13:36:59;;;;;;;95.53;42.85;;;;;;;;;;6250196;28;20101;-77
2022/12/03 13:40:00;;;;;;;;;;;;;;;;;;6239443;28;20025;-77
2022/12/03 13:43:09;;;;;;;93.18;43.70;;;;;;;;;;6237980;28;19909;-76
2022/12/03 13:46:09;;;;;;;90.85;44.58;;;;;;;;;;6240806;28;20021;-76
2022/12/03 13:49:28;;;;;;;100.03;46.53;;;;;;;;;;6234746;28;20037;-76
2022/12/03 13:52:30;;;;;;;92.70;43.83;;;;;;;;;;6242004;28;20021;-77
2022/12/03 13:55:30;;;;;;;91.85;42.42;;;;;;;;;;6238884;28;20416;-76
2022/12/03 13:58:31;;;;;;;92.07;41.97;;;;;;;;;;6239337;28;20073;-76
2022/12/03 14:01:31;;;;;;;89.17;40.93;;;;;;;;;;6232609;28;20062;-76
2022/12/03 14:04:46;;;;;;;88.13;40.93;;;;;;;;;;6236388;28;20016;-76
2022/12/03 14:07:47;;;;;;;89.97;41.67;;;;;;;;;;6236365;28;20389;-77
2022/12/03 14:10:47;;;;;;;95.97;41.17;;;;;;;;;;6238853;28;20052;-76
2022/12/03 14:13:55;;;;;;;98.25;45.00;;;;;;;;;;6238553;28;20044;-76
2022/12/03 14:16:55;;;;;;;95.55;41.63;;;;;;;;;;6232586;28;20017;-76
2022/12/03 14:20:24;;;;;;;99.70;45.27;;;;;;;;;;6238421;28;20087;-77
2022/12/03 14:23:27;;;;;;;85.60;41.30;;;;;;;;;;6231566;28;20493;-77
2022/12/03 14:26:27;;;;;;;93.35;45.03;;;;;;;;;;6230933;28;20439;-76
2022/12/03 14:29:28;;;;;;;96.63;45.57;;;;;;;;;;6234606;28;20033;-76
2022/12/03 14:32:37;;;;;;;92.87;42.20;;;;;;;;;;6234941;28;20033;-76
2022/12/03 14:35:43;;;;;;;93.43;44.92;;;;;;;;;;6233876;28;20022;-77
2022/12/03 14:38:44;;;;;;;91.80;41.13;;;;;;;;;;6229900;28;20033;-76
2022/12/03 14:45:04;;;;;;;90.50;38.47;;;;;;;;;;6225974;28;20131;-75
2022/12/03 14:48:08;;;;;;;102.77;42.23;;;;;;;;;;6232102;28;20539;-76
2022/12/03 14:51:09;;;;;;;95.53;39.50;;;;;;;;;;6232074;28;20552;-76
2022/12/03 14:54:09;;;;;;;80.00;35.17;;;;;;;;;;6233914;28;20048;-76
2022/12/03 14:57:11;;;;;;;98.93;42.30;;;;;;;;;;6216875;28;20061;-75
2022/12/03 15:00:12;;;;;;;93.63;45.80;;;;;;;;;;6217144;28;20516;-75
2022/12/03 15:03:12;;;;;;;94.30;40.33;;;;;;;;;;6233142;28;20056;-76
2022/12/03 15:06:12;;;;;;;94.27;45.53;;;;;;;;;;6233373;28;20064;-75
2022/12/03 15:09:13;;;;;;;92.47;43.17;;;;;;;;;;6224055;28;20371;-75
2022/12/03 15:12:13;;;;;;;81.93;38.30;;;;;;;;;;6232715;28;20063;-76
2022/12/03 15:15:13;;;;;;;107.87;51.00;;;;;;;;;;6232624;28;20428;-75
2022/12/03 15:18:13;;;;;;;95.33;43.87;;;;;;;;;;6233666;28;20108;-76
2022/12/03 15:21:13;;;;;;;124.73;59.17;;;;;;;;;;6232571;28;20029;-76
2022/12/03 15:24:14;;;;;;;130.43;63.20;;;;;;;;;;6237360;28;20062;-76
2022/12/03 15:27:18;;;;;;;113.45;56.50;;;;;;;;;;6240972;28;20642;-76
2022/12/03 15:30:19;;;;;;;114.43;49.85;;;;;;;;;;6236568;28;20304;-76
2022/12/03 15:33:19;;;;;;;104.32;51.28;;;;;;;;;;6236188;28;20044;-76
2022/12/03 15:36:19;;;;;;;99.33;49.07;;;;;;;;;;6236476;28;20544;-76
2022/12/03 15:39:20;;;;;;;84.03;41.27;;;;;;;;;;6232483;28;20030;-75
2022/12/03 15:42:20;;;;;;;98.93;50.47;;;;;;;;;;6235466;28;20104;-78
2022/12/03 15:45:20;;;;;;;111.47;57.47;;;;;;;;;;6228136;28;20101;-75
2022/12/03 15:48:21;;;;;;;111.37;45.47;;;;;;;;;;6241143;28;20670;-76
2022/12/03 15:51:21;;;;;;;96.97;46.07;;;;;;;;;;6242846;28;20049;-76
2022/12/03 15:54:21;;;;;;;89.77;41.00;;;;;;;;;;6240295;28;20104;-76
2022/12/03 15:57:21;;;;;;;79.20;36.33;;;;;;;;;;6240019;28;20033;-76
2022/12/03 16:00:23;;;;;;;84.83;37.47;;;;;;;;;;6240217;28;20025;-76
2022/12/03 16:03:29;;;;;;;87.65;42.75;;;;;;;;;;6240683;28;20014;-76
2022/12/03 16:06:32;;;;;;;75.78;40.17;;;;;;;;;;6248680;28;20104;-77
2022/12/03 16:09:37;;;;;;;86.60;40.92;;;;;;;;;;6241133;28;20465;-76
2022/12/03 16:12:39;;;;;;;80.90;38.05;;;;;;;;;;6238145;28;20049;-77
2022/12/03 16:15:39;;;;;;;89.07;41.92;;;;;;;;;;6239299;28;20777;-77
2022/12/03 16:18:40;;;;;;;74.77;38.17;;;;;;;;;;6231745;28;20390;-76
2022/12/03 16:21:40;;;;;;;85.17;38.73;;;;;;;;;;6228323;28;20441;-76
2022/12/03 16:24:40;;;;;;;92.37;41.93;;;;;;;;;;6226964;28;20366;-77
2022/12/03 16:27:53;;;;;;;85.07;40.50;;;;;;;;;;6226517;28;20239;-77
2022/12/03 16:30:53;;;;;;;90.68;42.40;;;;;;;;;;6223541;28;20120;-77
2022/12/03 16:33:53;;;;;;;90.23;41.17;;;;;;;;;;6229447;28;20036;-76
2022/12/03 16:36:54;;;;;;;88.43;40.80;;;;;;;;;;6222657;28;20049;-76
2022/12/03 16:39:54;;;;;;;81.30;36.90;;;;;;;;;;6221621;28;20540;-77
2022/12/03 16:42:55;;;;;;;87.47;41.23;;;;;;;;;;6223375;28;20045;-76
2022/12/03 16:46:08;;;;;;;98.97;45.70;;;;;;;;;;6226878;28;20544;-76
2022/12/03 16:49:08;;;;;;;104.13;44.83;;;;;;;;;;6229341;28;20515;-76
2022/12/03 16:52:29;;;;;;;80.07;36.27;;;;;;;;;;6238437;28;20029;-76
2022/12/03 16:55:30;;;;;;;87.90;40.97;;;;;;;;;;6224623;28;20485;-77
2022/12/03 16:58:30;;;;;;;85.77;39.77;;;;;;;;;;6219685;28;20120;-76
2022/12/03 17:01:30;;;;;;;80.80;41.70;;;;;;;;;;6218556;28;20022;-76
2022/12/03 17:04:30;;;;;;;103.03;44.63;;;;;;;;;;6223996;28;20025;-76
2022/12/03 17:07:31;;;;;;;96.27;43.37;;;;;;;;;;6233937;28;20067;-77
2022/12/03 17:10:31;;;;;;;104.73;46.77;;;;;;;;;;6231722;28;20071;-76
2022/12/03 17:13:31;;;;;;;91.90;43.80;;;;;;;;;;6221283;28;20029;-77
2022/12/03 17:16:31;;;;;;;94.23;41.97;;;;;;;;;;6221316;28;20106;-76
2022/12/03 17:19:32;;;;;;;100.60;44.57;;;;;;;;;;6225992;28;20036;-76
2022/12/03 17:22:32;;;;;;;84.03;43.70;;;;;;;;;;6220137;28;20496;-76
2022/12/03 17:25:33;;;;;;;101.27;42.73;;;;;;;;;;6218122;28;20452;-77
2022/12/03 17:28:33;;;;;;;98.37;48.97;;;;;;;;;;6225191;28;20025;-76
2022/12/03 17:31:33;;;;;;;88.47;42.90;;;;;;;;;;6223169;28;20108;-76
2022/12/03 17:34:34;;;;;;;100.63;43.10;;;;;;;;;;6223959;28;20017;-76
2022/12/03 17:37:34;;;;;;;90.93;45.80;;;;;;;;;;6239869;28;20064;-76
2022/12/03 17:40:34;;;;;;;91.67;44.10;;;;;;;;;;6243303;28;20111;-76
2022/12/03 17:43:34;;;;;;;97.87;43.07;;;;;;;;;;6233229;28;20109;-76
2022/12/03 17:46:34;;;;;;;90.00;42.03;;;;;;;;;;6237670;28;20043;-76
2022/12/03 17:49:35;;;;;;;97.05;45.38;;;;;;;;;;6234807;28;20021;-76
2022/12/03 17:52:35;;;;;;;92.77;45.93;;;;;;;;;;6240621;28;20107;-76
2022/12/03 17:55:36;;;;;;;94.00;46.73;;;;;;;;;;6243367;28;20043;-76
2022/12/03 17:58:36;;;;;;;101.83;45.93;;;;;;;;;;6238685;28;20046;-77
2022/12/03 18:01:36;;;;;;;87.20;48.20;;;;;;;;;;6235303;28;20017;-76
2022/12/03 18:04:36;;;;;;;101.70;46.23;;;;;;;;;;6234622;28;20084;-76
2022/12/03 18:07:37;;;;;;;103.60;49.30;;;;;;;;;;6237897;28;20017;-76
2022/12/03 18:10:37;;;;;;;93.82;46.58;;;;;;;;;;6235840;28;20021;-77